Time;durP1;ratioP1;P1;durP2;ratioP2;P2;SDS_P1;SDS_P2;PMS_P1;PMS_P2;Temp;Humidity;BMP_temperature;BMP_pressure;BME280_temperature;BME280_humidity;BME280_pressure;Samples;Min_cycle;Max_cycle;Signal;HPM_P1;HPM_P2
2023/02/12 00:00:35;;;;;;;13.55;5.05;;;;;;;;;;5080135;28;20393;-72
2023/02/12 00:03:03;;;;;;;5.80;3.28;;;;;;;;;;5090947;28;20059;-73
2023/02/12 00:05:31;;;;;;;7.63;3.78;;;;;;;;;;5079711;28;20044;-73
2023/02/12 00:08:00;;;;;;;15.65;3.92;;;;;;;;;;5075348;28;20052;-73
2023/02/12 00:10:29;;;;;;;12.70;5.32;;;;;;;;;;5074829;28;20046;-73
2023/02/12 00:12:58;;;;;;;12.70;5.40;;;;;;;;;;5079530;28;20060;-73
2023/02/12 00:15:26;;;;;;;8.88;4.55;;;;;;;;;;5076988;28;20131;-73
2023/02/12 00:17:54;;;;;;;8.13;3.83;;;;;;;;;;5087581;28;20097;-73
2023/02/12 00:20:22;;;;;;;3.20;2.53;;;;;;;;;;5086539;28;20051;-73
2023/02/12 00:22:51;;;;;;;7.65;3.03;;;;;;;;;;5092659;28;20067;-73
2023/02/12 00:25:19;;;;;;;7.90;3.10;;;;;;;;;;5092553;28;20048;-73
2023/02/12 00:27:49;;;;;;;7.72;3.50;;;;;;;;;;5082358;28;20059;-73
2023/02/12 00:30:17;;;;;;;8.10;3.45;;;;;;;;;;5080228;28;20051;-73
2023/02/12 00:32:45;;;;;;;11.40;3.70;;;;;;;;;;5089736;28;20535;-73
2023/02/12 00:35:14;;;;;;;5.80;3.92;;;;;;;;;;5088305;28;20056;-73
2023/02/12 00:37:43;;;;;;;7.20;3.97;;;;;;;;;;5081557;28;20572;-73
2023/02/12 00:40:11;;;;;;;8.80;4.20;;;;;;;;;;5090128;28;20066;-73
2023/02/12 00:42:40;;;;;;;8.85;3.25;;;;;;;;;;5084297;28;20063;-73
2023/02/12 00:45:10;;;;;;;7.13;3.75;;;;;;;;;;5077001;28;20049;-72
2023/02/12 00:47:38;;;;;;;10.43;2.92;;;;;;;;;;5070875;28;20064;-73
2023/02/12 00:50:07;;;;;;;7.53;3.80;;;;;;;;;;5065813;28;20075;-72
2023/02/12 00:52:35;;;;;;;8.18;4.22;;;;;;;;;;5057574;28;20053;-73
2023/02/12 00:55:04;;;;;;;3.15;2.25;;;;;;;;;;5072106;28;20144;-73
2023/02/12 00:57:32;;;;;;;7.72;3.92;;;;;;;;;;5065560;28;20051;-73
2023/02/12 01:00:00;;;;;;;5.82;3.00;;;;;;;;;;5057888;28;20056;-73
2023/02/12 01:02:30;;;;;;;8.27;3.50;;;;;;;;;;5063974;28;20087;-73
2023/02/12 01:04:58;;;;;;;9.98;3.47;;;;;;;;;;5070810;28;20048;-73
2023/02/12 01:07:27;;;;;;;3.42;2.58;;;;;;;;;;5067128;28;20045;-73
2023/02/12 01:09:55;;;;;;;9.73;3.30;;;;;;;;;;5086515;28;20485;-73
2023/02/12 01:12:23;;;;;;;8.82;2.92;;;;;;;;;;5085647;28;20036;-73
2023/02/12 01:14:51;;;;;;;5.78;3.70;;;;;;;;;;5076842;28;20064;-73
2023/02/12 01:17:20;;;;;;;6.05;2.63;;;;;;;;;;5073440;28;20047;-72
2023/02/12 01:19:49;;;;;;;9.00;3.08;;;;;;;;;;5083087;28;20052;-73
2023/02/12 01:22:18;;;;;;;9.95;3.08;;;;;;;;;;5084971;28;20045;-73
2023/02/12 01:24:46;;;;;;;5.53;2.72;;;;;;;;;;5086322;28;20059;-73
2023/02/12 01:27:14;;;;;;;10.52;2.97;;;;;;;;;;5082914;28;20626;-72
2023/02/12 01:29:43;;;;;;;3.53;1.98;;;;;;;;;;5087505;28;20044;-73
2023/02/12 01:32:11;;;;;;;10.23;3.95;;;;;;;;;;5082361;28;20044;-73
2023/02/12 01:34:40;;;;;;;3.17;2.78;;;;;;;;;;5086410;28;20094;-73
2023/02/12 01:37:09;;;;;;;11.52;2.83;;;;;;;;;;5071665;28;20049;-72
2023/02/12 01:39:38;;;;;;;10.23;3.40;;;;;;;;;;5061884;28;20052;-73
2023/02/12 01:42:06;;;;;;;10.07;3.85;;;;;;;;;;5069809;28;20052;-72
2023/02/12 01:44:45;;;;;;;7.65;3.17;;;;;;;;;;5064950;28;20155;-72
2023/02/12 01:47:17;;;;;;;6.57;3.55;;;;;;;;;;5061606;28;20044;-72
2023/02/12 01:49:46;;;;;;;6.80;2.75;;;;;;;;;;5082705;28;20052;-73
2023/02/12 01:52:19;;;;;;;5.72;2.97;;;;;;;;;;5085391;28;20048;-72
2023/02/12 01:54:47;;;;;;;5.72;2.53;;;;;;;;;;5091584;28;20134;-73
2023/02/12 01:57:17;;;;;;;7.90;4.15;;;;;;;;;;5089566;28;20522;-73
2023/02/12 01:59:47;;;;;;;12.40;4.00;;;;;;;;;;5090188;28;20060;-72
2023/02/12 02:02:15;;;;;;;9.50;2.65;;;;;;;;;;5087349;28;20052;-72
2023/02/12 02:04:47;;;;;;;6.85;3.05;;;;;;;;;;5087183;28;20048;-73
2023/02/12 02:07:16;;;;;;;3.50;2.85;;;;;;;;;;5071492;28;20059;-73
2023/02/12 02:09:45;;;;;;;7.70;2.88;;;;;;;;;;5061824;28;20067;-73
2023/02/12 02:15:00;;;;;;;5.18;3.58;;;;;;;;;;5060145;28;20136;-73
2023/02/12 02:17:42;;;;;;;9.80;4.43;;;;;;;;;;5053263;28;20047;-73
2023/02/12 02:20:19;;;;;;;15.20;4.75;;;;;;;;;;5062567;28;20531;-73
2023/02/12 02:22:53;;;;;;;10.18;3.28;;;;;;;;;;5061306;28;20044;-73
2023/02/12 02:25:33;;;;;;;10.77;4.68;;;;;;;;;;5069289;28;20052;-73
2023/02/12 02:28:07;;;;;;;11.77;3.85;;;;;;;;;;5058123;28;20049;-73
2023/02/12 02:30:43;;;;;;;4.50;3.33;;;;;;;;;;5057881;28;20048;-73
2023/02/12 02:33:24;;;;;;;3.85;2.42;;;;;;;;;;5072437;28;20052;-73
2023/02/12 02:35:56;;;;;;;11.45;5.53;;;;;;;;;;5066069;28;20083;-73
2023/02/12 02:38:29;;;;;;;6.80;3.72;;;;;;;;;;5072921;28;20382;-72
2023/02/12 02:41:01;;;;;;;10.20;3.72;;;;;;;;;;5084384;28;20131;-72
2023/02/12 02:43:30;;;;;;;2.75;2.17;;;;;;;;;;5082405;28;20052;-73
2023/02/12 02:46:03;;;;;;;12.65;3.65;;;;;;;;;;5081424;28;20052;-73
2023/02/12 02:48:34;;;;;;;8.10;3.22;;;;;;;;;;5082678;28;20409;-73
2023/02/12 02:51:05;;;;;;;7.78;3.08;;;;;;;;;;5083612;28;20048;-73
2023/02/12 02:53:36;;;;;;;5.93;3.75;;;;;;;;;;5081685;28;20056;-72
2023/02/12 02:56:06;;;;;;;7.00;3.47;;;;;;;;;;5085309;28;20052;-72
2023/02/12 02:58:36;;;;;;;13.48;4.63;;;;;;;;;;5062337;28;20060;-73
2023/02/12 03:01:08;;;;;;;3.35;2.42;;;;;;;;;;5069052;28;20049;-72
2023/02/12 03:03:39;;;;;;;17.60;4.57;;;;;;;;;;5064920;28;20053;-73
2023/02/12 03:06:09;;;;;;;8.50;3.15;;;;;;;;;;5062669;28;20052;-73
2023/02/12 03:08:39;;;;;;;10.20;2.72;;;;;;;;;;5069322;28;20052;-73
2023/02/12 03:11:12;;;;;;;18.55;2.40;;;;;;;;;;5084489;28;20048;-73
2023/02/12 03:13:43;;;;;;;5.30;3.22;;;;;;;;;;5082537;28;20485;-72
2023/02/12 03:16:16;;;;;;;7.60;2.58;;;;;;;;;;5089179;28;20054;-73
2023/02/12 03:18:46;;;;;;;8.13;3.75;;;;;;;;;;5074892;28;20556;-73
2023/02/12 03:21:16;;;;;;;14.35;3.95;;;;;;;;;;5058246;28;20060;-73
2023/02/12 03:23:47;;;;;;;4.78;2.40;;;;;;;;;;5063341;28;20049;-72
2023/02/12 03:26:19;;;;;;;11.48;3.45;;;;;;;;;;5062016;28;20401;-73
2023/02/12 03:28:48;;;;;;;4.57;2.78;;;;;;;;;;5062190;28;20420;-73
2023/02/12 03:31:21;;;;;;;6.50;3.47;;;;;;;;;;5062589;28;20052;-71
2023/02/12 03:33:54;;;;;;;7.35;2.88;;;;;;;;;;5070757;28;20064;-72
2023/02/12 03:36:27;;;;;;;8.32;2.83;;;;;;;;;;5056401;28;20056;-72
2023/02/12 03:38:57;;;;;;;7.60;3.05;;;;;;;;;;5083379;28;20048;-72
2023/02/12 03:41:28;;;;;;;4.70;3.42;;;;;;;;;;5081060;28;20040;-73
2023/02/12 03:44:00;;;;;;;13.70;4.35;;;;;;;;;;5089977;28;20047;-73
2023/02/12 03:46:35;;;;;;;4.47;3.00;;;;;;;;;;5084516;28;20511;-73
2023/02/12 03:49:05;;;;;;;7.78;2.95;;;;;;;;;;5055476;28;20116;-73
2023/02/12 03:51:35;;;;;;;6.80;2.47;;;;;;;;;;5064562;28;20048;-73
2023/02/12 03:54:04;;;;;;;8.00;3.90;;;;;;;;;;5062058;28;20051;-73
2023/02/12 03:56:35;;;;;;;10.18;3.05;;;;;;;;;;5058345;28;20052;-73
2023/02/12 03:59:04;;;;;;;6.75;3.58;;;;;;;;;;5065504;28;20477;-73
2023/02/12 04:01:34;;;;;;;11.98;3.35;;;;;;;;;;5065401;28;20048;-74
2023/02/12 04:04:04;;;;;;;14.68;3.95;;;;;;;;;;5064785;28;20045;-73
2023/02/12 04:06:32;;;;;;;8.75;3.20;;;;;;;;;;5057813;28;20048;-73
2023/02/12 04:09:02;;;;;;;18.63;5.78;;;;;;;;;;5064947;28;20044;-72
2023/02/12 04:11:35;;;;;;;9.25;2.90;;;;;;;;;;5058828;28;20051;-72
2023/02/12 04:14:14;;;;;;;8.82;3.30;;;;;;;;;;5054642;28;20045;-72
2023/02/12 04:16:46;;;;;;;11.75;3.75;;;;;;;;;;5059278;28;20501;-72
2023/02/12 04:19:17;;;;;;;7.60;3.78;;;;;;;;;;5065490;28;20080;-73
2023/02/12 04:21:50;;;;;;;9.68;3.47;;;;;;;;;;5058098;28;20094;-73
2023/02/12 04:24:19;;;;;;;10.52;3.72;;;;;;;;;;5059223;28;20101;-73
2023/02/12 04:26:49;;;;;;;9.73;3.72;;;;;;;;;;5057135;28;20083;-72
2023/02/12 04:29:22;;;;;;;6.10;2.35;;;;;;;;;;5059292;28;20053;-72
2023/02/12 04:31:55;;;;;;;11.32;4.15;;;;;;;;;;5060916;28;20123;-73
2023/02/12 04:34:27;;;;;;;8.60;3.88;;;;;;;;;;5066378;28;20059;-72
2023/02/12 04:36:57;;;;;;;7.97;2.80;;;;;;;;;;5057510;28;20044;-73
2023/02/12 04:39:28;;;;;;;8.02;3.50;;;;;;;;;;5067307;28;20048;-72
2023/02/12 04:41:58;;;;;;;12.13;4.78;;;;;;;;;;5063130;28;20056;-72
2023/02/12 04:44:27;;;;;;;7.70;4.10;;;;;;;;;;5067468;28;20064;-73
2023/02/12 04:46:57;;;;;;;6.53;2.78;;;;;;;;;;5062428;28;20547;-73
2023/02/12 04:49:26;;;;;;;10.43;4.72;;;;;;;;;;5066340;28;20124;-72
2023/02/12 04:51:54;;;;;;;4.40;3.53;;;;;;;;;;5069011;28;20048;-72
2023/02/12 04:54:23;;;;;;;8.50;3.03;;;;;;;;;;5059179;28;20539;-73
2023/02/12 04:56:52;;;;;;;3.30;2.10;;;;;;;;;;5060429;28;20052;-73
2023/02/12 04:59:20;;;;;;;4.60;3.22;;;;;;;;;;5058998;28;20044;-73
2023/02/12 05:01:49;;;;;;;8.70;4.07;;;;;;;;;;5063865;28;20045;-73
2023/02/12 05:04:19;;;;;;;11.73;4.15;;;;;;;;;;5057128;28;20072;-72
2023/02/12 05:06:47;;;;;;;7.95;4.07;;;;;;;;;;5066332;28;20489;-72
2023/02/12 05:09:17;;;;;;;11.43;4.63;;;;;;;;;;5062469;28;20490;-73
2023/02/12 05:11:45;;;;;;;6.45;3.60;;;;;;;;;;5066273;28;20047;-73
2023/02/12 05:14:14;;;;;;;10.40;4.00;;;;;;;;;;5071050;28;20059;-72
2023/02/12 05:16:42;;;;;;;15.23;4.18;;;;;;;;;;5055923;28;20055;-72
2023/02/12 05:19:10;;;;;;;8.57;3.55;;;;;;;;;;5059536;28;20071;-73
2023/02/12 05:21:40;;;;;;;8.50;4.65;;;;;;;;;;5056356;28;20124;-73
2023/02/12 05:24:09;;;;;;;9.23;3.28;;;;;;;;;;5066329;28;20055;-72
2023/02/12 05:26:37;;;;;;;7.05;3.72;;;;;;;;;;5063604;28;20053;-72
2023/02/12 05:29:05;;;;;;;10.93;3.92;;;;;;;;;;5060403;28;20429;-72
2023/02/12 05:31:34;;;;;;;6.93;3.83;;;;;;;;;;5066417;28;20485;-72
2023/02/12 05:34:02;;;;;;;7.45;2.72;;;;;;;;;;5066168;28;20057;-73
2023/02/12 05:36:31;;;;;;;12.90;4.50;;;;;;;;;;5060674;28;20044;-72
2023/02/12 05:39:00;;;;;;;9.75;4.38;;;;;;;;;;5057483;28;20060;-73
2023/02/12 05:41:33;;;;;;;8.52;3.53;;;;;;;;;;5068722;28;20040;-72
2023/02/12 05:44:01;;;;;;;11.85;4.50;;;;;;;;;;5072549;28;20052;-73
2023/02/12 05:46:30;;;;;;;10.07;4.10;;;;;;;;;;5060651;28;20049;-73
2023/02/12 05:48:58;;;;;;;5.90;3.45;;;;;;;;;;5062067;28;20106;-73
2023/02/12 05:51:27;;;;;;;10.93;3.70;;;;;;;;;;5061447;28;20066;-72
2023/02/12 05:53:58;;;;;;;5.35;3.33;;;;;;;;;;5067083;28;20040;-72
2023/02/12 05:56:29;;;;;;;18.42;4.10;;;;;;;;;;5066716;28;20083;-72
2023/02/12 05:58:58;;;;;;;14.52;4.45;;;;;;;;;;5068457;28;20044;-73
2023/02/12 06:01:27;;;;;;;8.35;4.13;;;;;;;;;;5063156;28;20048;-72
2023/02/12 06:03:56;;;;;;;12.32;4.38;;;;;;;;;;5062882;28;20311;-73
2023/02/12 06:06:25;;;;;;;15.30;3.47;;;;;;;;;;5069505;28;20049;-72
2023/02/12 06:08:54;;;;;;;9.50;4.55;;;;;;;;;;5059398;28;20127;-73
2023/02/12 06:11:22;;;;;;;8.20;3.28;;;;;;;;;;5062126;28;20405;-72
2023/02/12 06:13:52;;;;;;;8.20;4.50;;;;;;;;;;5057562;28;20057;-72
2023/02/12 06:16:21;;;;;;;10.35;3.40;;;;;;;;;;5060886;28;20056;-72
2023/02/12 06:18:49;;;;;;;9.25;3.15;;;;;;;;;;5073261;28;20129;-73
2023/02/12 06:21:18;;;;;;;9.90;4.25;;;;;;;;;;5075189;28;20052;-73
2023/02/12 06:23:47;;;;;;;8.43;3.33;;;;;;;;;;5081723;28;20093;-73
2023/02/12 06:26:15;;;;;;;8.25;3.25;;;;;;;;;;5085004;28;20043;-73
2023/02/12 06:28:44;;;;;;;26.45;4.70;;;;;;;;;;5064087;28;20051;-73
2023/02/12 06:31:21;;;;;;;9.50;4.07;;;;;;;;;;5058852;28;20052;-73
2023/02/12 06:33:50;;;;;;;7.63;3.30;;;;;;;;;;5065687;28;20066;-72
2023/02/12 06:36:18;;;;;;;7.88;3.30;;;;;;;;;;5065810;28;20171;-72
2023/02/12 06:38:47;;;;;;;11.10;4.35;;;;;;;;;;5062480;28;20053;-72
2023/02/12 06:41:15;;;;;;;9.82;4.72;;;;;;;;;;5062660;28;20401;-72
2023/02/12 06:43:44;;;;;;;5.70;2.83;;;;;;;;;;5068887;28;20051;-72
2023/02/12 06:46:13;;;;;;;5.97;3.55;;;;;;;;;;5070257;28;20048;-71
2023/02/12 06:48:43;;;;;;;9.52;3.55;;;;;;;;;;5066791;28;20040;-72
2023/02/12 06:51:13;;;;;;;5.90;2.95;;;;;;;;;;5060841;28;20135;-75
2023/02/12 06:53:46;;;;;;;7.03;3.88;;;;;;;;;;5064687;28;20049;-73
2023/02/12 06:56:15;;;;;;;5.43;3.05;;;;;;;;;;5060789;28;20052;-72
2023/02/12 06:58:44;;;;;;;14.00;5.45;;;;;;;;;;5072172;28;20045;-72
2023/02/12 07:01:14;;;;;;;7.88;3.63;;;;;;;;;;5081799;28;20044;-72
2023/02/12 07:03:44;;;;;;;9.95;4.88;;;;;;;;;;5085267;28;20139;-72
2023/02/12 07:06:12;;;;;;;8.30;2.92;;;;;;;;;;5081714;28;20077;-73
2023/02/12 07:08:41;;;;;;;15.82;3.95;;;;;;;;;;5081227;28;20048;-72
2023/02/12 07:11:09;;;;;;;14.13;4.38;;;;;;;;;;5088956;28;21133;-72
2023/02/12 07:13:38;;;;;;;14.18;4.53;;;;;;;;;;5082115;28;20048;-71
2023/02/12 07:16:07;;;;;;;12.18;5.38;;;;;;;;;;5085733;28;20056;-73
2023/02/12 07:18:36;;;;;;;8.77;4.45;;;;;;;;;;5080827;28;20135;-72
2023/02/12 07:21:07;;;;;;;13.40;4.35;;;;;;;;;;5084677;28;20598;-72
2023/02/12 07:23:36;;;;;;;14.02;3.65;;;;;;;;;;5085094;28;20051;-72
2023/02/12 07:26:05;;;;;;;6.60;3.78;;;;;;;;;;5085091;28;20415;-72
2023/02/12 07:28:33;;;;;;;10.35;4.47;;;;;;;;;;5073494;28;20049;-73
2023/02/12 07:31:06;;;;;;;5.50;3.15;;;;;;;;;;5074088;28;20103;-72
2023/02/12 07:33:35;;;;;;;9.90;4.55;;;;;;;;;;5078191;28;20123;-71
2023/02/12 07:36:04;;;;;;;7.90;4.18;;;;;;;;;;5081182;28;20059;-71
2023/02/12 07:38:34;;;;;;;11.30;5.40;;;;;;;;;;5086302;28;20480;-72
2023/02/12 07:41:11;;;;;;;10.65;3.50;;;;;;;;;;5085889;28;20451;-72
2023/02/12 07:43:39;;;;;;;14.57;5.35;;;;;;;;;;5084282;28;20071;-72
2023/02/12 07:46:09;;;;;;;10.93;4.32;;;;;;;;;;5086502;28;20084;-74
2023/02/12 07:48:37;;;;;;;10.57;4.28;;;;;;;;;;5074383;28;20044;-73
2023/02/12 07:51:07;;;;;;;11.68;3.33;;;;;;;;;;5081793;28;20498;-72
2023/02/12 07:53:37;;;;;;;11.00;4.07;;;;;;;;;;5078219;28;20052;-72
2023/02/12 07:56:06;;;;;;;10.73;4.93;;;;;;;;;;5076821;28;20055;-71
2023/02/12 07:58:34;;;;;;;19.13;3.85;;;;;;;;;;5065177;28;20049;-72
2023/02/12 08:01:11;;;;;;;11.43;5.35;;;;;;;;;;5058314;28;20077;-72
2023/02/12 08:03:40;;;;;;;13.10;4.50;;;;;;;;;;5054420;28;20105;-72
2023/02/12 08:06:09;;;;;;;11.80;4.68;;;;;;;;;;5056089;28;20044;-72
2023/02/12 08:08:39;;;;;;;5.57;2.72;;;;;;;;;;5054420;28;20055;-72
2023/02/12 08:11:07;;;;;;;12.68;5.55;;;;;;;;;;5051067;28;20444;-71
2023/02/12 08:13:36;;;;;;;12.27;3.33;;;;;;;;;;5055807;28;20401;-72
2023/02/12 08:16:05;;;;;;;15.32;5.28;;;;;;;;;;5065333;28;20379;-72
2023/02/12 08:18:33;;;;;;;10.95;3.55;;;;;;;;;;5061123;28;20080;-72
2023/02/12 08:21:03;;;;;;;9.30;3.63;;;;;;;;;;5056110;28;20049;-72
2023/02/12 08:23:31;;;;;;;11.40;4.68;;;;;;;;;;5058489;28;20407;-72
2023/02/12 08:26:12;;;;;;;11.82;4.22;;;;;;;;;;5056442;28;20053;-72
2023/02/12 08:28:41;;;;;;;14.65;4.72;;;;;;;;;;5059240;28;20157;-72
2023/02/12 08:31:11;;;;;;;11.27;4.65;;;;;;;;;;5058085;28;20150;-72
2023/02/12 08:33:39;;;;;;;15.68;3.15;;;;;;;;;;5053172;28;20399;-72
2023/02/12 08:36:09;;;;;;;11.10;4.95;;;;;;;;;;5061953;28;20068;-70
2023/02/12 08:38:38;;;;;;;11.82;5.05;;;;;;;;;;5072741;28;20047;-72
2023/02/12 08:41:07;;;;;;;14.07;4.10;;;;;;;;;;5080327;28;20049;-71
2023/02/12 08:43:38;;;;;;;14.48;4.53;;;;;;;;;;5089264;28;20052;-70
2023/02/12 08:46:07;;;;;;;19.98;4.30;;;;;;;;;;5081106;28;20049;-70
2023/02/12 08:48:36;;;;;;;8.70;2.97;;;;;;;;;;5067186;28;20047;-70
2023/02/12 08:51:05;;;;;;;11.10;4.95;;;;;;;;;;5065426;28;20450;-71
2023/02/12 08:53:33;;;;;;;14.57;4.57;;;;;;;;;;5059248;28;20041;-71
2023/02/12 08:56:02;;;;;;;14.38;3.53;;;;;;;;;;5067623;28;20497;-71
2023/02/12 08:58:30;;;;;;;13.48;4.63;;;;;;;;;;5066989;28;20052;-70
2023/02/12 09:01:00;;;;;;;15.38;3.58;;;;;;;;;;5067010;28;20414;-73
2023/02/12 09:03:28;;;;;;;14.20;4.55;;;;;;;;;;5057404;28;20056;-71
2023/02/12 09:05:56;;;;;;;8.52;3.65;;;;;;;;;;5061273;28;20074;-71
2023/02/12 09:08:25;;;;;;;9.07;3.53;;;;;;;;;;5064194;28;20047;-71
2023/02/12 09:10:53;;;;;;;6.10;3.50;;;;;;;;;;5062308;28;20044;-71
2023/02/12 09:13:22;;;;;;;12.82;4.68;;;;;;;;;;5060336;28;20045;-71
2023/02/12 09:15:50;;;;;;;4.80;2.75;;;;;;;;;;5061413;28;20457;-71
2023/02/12 09:18:19;;;;;;;7.43;4.10;;;;;;;;;;5063913;28;20060;-72
2023/02/12 09:20:48;;;;;;;17.27;4.40;;;;;;;;;;5066669;28;20061;-71
2023/02/12 09:23:16;;;;;;;9.93;3.47;;;;;;;;;;5066048;28;20717;-71
2023/02/12 09:25:45;;;;;;;12.88;3.05;;;;;;;;;;5057595;28;20405;-71
2023/02/12 09:28:15;;;;;;;12.52;3.95;;;;;;;;;;5060014;28;20436;-72
2023/02/12 09:30:43;;;;;;;7.93;2.42;;;;;;;;;;5054609;28;20045;-72
2023/02/12 09:33:12;;;;;;;12.10;3.78;;;;;;;;;;5063749;28;20052;-72
2023/02/12 09:35:42;;;;;;;10.15;3.45;;;;;;;;;;5062412;28;20040;-72
2023/02/12 09:38:10;;;;;;;9.60;3.78;;;;;;;;;;5053017;28;20045;-71
2023/02/12 09:40:43;;;;;;;4.82;2.33;;;;;;;;;;5058006;28;20516;-71
2023/02/12 09:43:18;;;;;;;10.95;3.55;;;;;;;;;;5058921;28;20056;-72
2023/02/12 09:45:50;;;;;;;8.75;3.35;;;;;;;;;;5063164;28;20048;-72
2023/02/12 09:48:27;;;;;;;5.75;2.72;;;;;;;;;;5058815;28;20080;-72
2023/02/12 09:50:58;;;;;;;7.68;2.67;;;;;;;;;;5068202;28;20044;-72
2023/02/12 09:53:29;;;;;;;9.02;4.32;;;;;;;;;;5066423;28;20098;-71
2023/02/12 09:55:57;;;;;;;6.35;3.08;;;;;;;;;;5062273;28;20053;-71
2023/02/12 09:58:31;;;;;;;8.30;2.63;;;;;;;;;;5072947;28;20501;-71
2023/02/12 10:01:02;;;;;;;9.73;3.47;;;;;;;;;;5078712;28;20359;-71
2023/02/12 10:03:31;;;;;;;13.95;3.00;;;;;;;;;;5078994;28;20052;-71
2023/02/12 10:06:03;;;;;;;7.72;3.45;;;;;;;;;;5073396;28;20055;-71
2023/02/12 10:08:37;;;;;;;0.82;0.82;;;;;;;;;;5066776;28;20041;-72
2023/02/12 10:11:14;;;;;;;3.70;1.75;;;;;;;;;;5066882;28;20048;-71
2023/02/12 10:13:45;;;;;;;2.25;1.63;;;;;;;;;;5058720;28;20380;-71
2023/02/12 10:16:17;;;;;;;3.28;0.82;;;;;;;;;;5059664;28;20060;-71
2023/02/12 10:18:59;;;;;;;4.47;2.35;;;;;;;;;;5059669;28;20060;-72
2023/02/12 10:21:40;;;;;;;1.83;1.10;;;;;;;;;;5056876;28;20123;-71
2023/02/12 10:24:17;;;;;;;5.72;2.30;;;;;;;;;;5063212;28;20063;-72
2023/02/12 10:26:48;;;;;;;2.33;2.10;;;;;;;;;;5057454;28;20565;-69
2023/02/12 10:29:19;;;;;;;2.35;1.65;;;;;;;;;;5084781;28;20052;-70
2023/02/12 10:31:51;;;;;;;3.67;1.58;;;;;;;;;;5075182;28;20044;-70
2023/02/12 10:34:21;;;;;;;2.72;1.85;;;;;;;;;;5082296;28;20068;-70
2023/02/12 10:36:53;;;;;;;4.85;0.93;;;;;;;;;;5087335;28;20123;-70
2023/02/12 10:39:22;;;;;;;1.67;0.70;;;;;;;;;;5075403;28;20523;-69
2023/02/12 10:41:55;;;;;;;4.88;0.60;;;;;;;;;;5077974;28;20057;-70
2023/02/12 10:44:24;;;;;;;3.33;1.60;;;;;;;;;;5082464;28;20059;-70
2023/02/12 10:46:52;;;;;;;0.30;0.30;;;;;;;;;;5085666;28;20098;-70
2023/02/12 10:49:21;;;;;;;1.35;0.40;;;;;;;;;;5083472;28;20052;-69
2023/02/12 10:51:57;;;;;;;1.35;0.50;;;;;;;;;;5073470;28;20049;-69
2023/02/12 10:54:35;;;;;;;0.85;0.30;;;;;;;;;;5076518;28;20044;-69
2023/02/12 10:57:09;;;;;;;1.23;0.70;;;;;;;;;;5077196;28;20115;-69
2023/02/12 10:59:37;;;;;;;0.35;0.30;;;;;;;;;;5074074;28;20060;-69
2023/02/12 11:02:06;;;;;;;0.90;0.30;;;;;;;;;;5084443;28;20048;-69
2023/02/12 11:04:34;;;;;;;0.13;0.13;;;;;;;;;;5084336;28;20420;-70
2023/02/12 11:07:05;;;;;;;0.75;0.43;;;;;;;;;;5078172;28;20056;-70
2023/02/12 11:09:39;;;;;;;3.17;0.40;;;;;;;;;;5078497;28;20078;-69
2023/02/12 11:12:18;;;;;;;1.30;0.30;;;;;;;;;;5076292;28;20067;-70
2023/02/12 11:14:49;;;;;;;0.32;0.22;;;;;;;;;;5083217;28;20051;-70
2023/02/12 11:17:23;;;;;;;1.85;0.73;;;;;;;;;;5070938;28;20123;-70
2023/02/12 11:20:02;;;;;;;2.50;0.35;;;;;;;;;;5059227;28;20405;-69
2023/02/12 11:22:32;;;;;;;0.52;0.30;;;;;;;;;;5061600;28;20102;-70
2023/02/12 11:25:01;;;;;;;0.30;0.28;;;;;;;;;;5062080;28;20076;-70
2023/02/12 11:27:30;;;;;;;0.82;0.50;;;;;;;;;;5066695;28;20048;-69
2023/02/12 11:30:12;;;;;;;1.58;0.45;;;;;;;;;;5061607;28;20572;-69
2023/02/12 11:32:41;;;;;;;0.88;0.88;;;;;;;;;;5060325;28;20406;-69
2023/02/12 11:35:14;;;;;;;0.40;0.38;;;;;;;;;;5061844;28;20045;-69
2023/02/12 11:37:44;;;;;;;0.38;0.30;;;;;;;;;;5068939;28;20060;-70
2023/02/12 11:40:17;;;;;;;0.60;0.32;;;;;;;;;;5075591;28;20054;-70
2023/02/12 11:42:48;;;;;;;0.98;0.20;;;;;;;;;;5084347;28;20508;-70
2023/02/12 11:45:18;;;;;;;0.95;0.30;;;;;;;;;;5073232;28;20040;-70
2023/02/12 11:47:46;;;;;;;0.13;0.13;;;;;;;;;;5066429;28;20045;-71
2023/02/12 11:50:19;;;;;;;1.08;0.40;;;;;;;;;;5052703;28;20607;-71
2023/02/12 11:52:51;;;;;;;1.52;0.50;;;;;;;;;;5070196;28;20040;-70
2023/02/12 11:55:21;;;;;;;0.93;0.47;;;;;;;;;;5057546;28;20482;-70
2023/02/12 11:57:50;;;;;;;1.00;0.73;;;;;;;;;;5058998;28;20069;-69
2023/02/12 12:00:21;;;;;;;1.15;0.28;;;;;;;;;;5060519;28;20060;-72
2023/02/12 12:02:53;;;;;;;1.45;0.40;;;;;;;;;;5061944;28;20097;-69
2023/02/12 12:05:23;;;;;;;2.17;0.93;;;;;;;;;;5060831;28;20413;-69
2023/02/12 12:07:57;;;;;;;2.80;0.85;;;;;;;;;;5066653;28;20109;-70
2023/02/12 12:10:31;;;;;;;1.17;0.68;;;;;;;;;;5055591;28;20513;-71
2023/02/12 12:13:00;;;;;;;;;;;;;;;;;;5062633;28;20123;-68
2023/02/12 12:21:12;;;;;;;0.80;0.50;;;;;;;;;;5058822;28;20061;-71
2023/02/12 12:23:44;;;;;;;2.63;0.65;;;;;;;;;;5054934;28;20531;-71
2023/02/12 12:26:15;;;;;;;0.73;0.35;;;;;;;;;;5068369;28;20056;-71
2023/02/12 12:28:46;;;;;;;3.40;1.33;;;;;;;;;;5067960;28;20048;-69
2023/02/12 12:31:16;;;;;;;3.72;0.68;;;;;;;;;;5066910;28;20052;-70
2023/02/12 12:33:47;;;;;;;1.52;0.47;;;;;;;;;;5060875;28;20056;-71
2023/02/12 12:36:27;;;;;;;0.70;0.70;;;;;;;;;;5064027;28;20064;-70
2023/02/12 12:39:02;;;;;;;4.72;1.10;;;;;;;;;;5083936;28;20123;-71
2023/02/12 12:41:30;;;;;;;;;;;;;;;;;;5083102;28;20048;-72
2023/02/12 12:44:06;;;;;;;5.63;1.00;;;;;;;;;;5092609;28;19989;-71
2023/02/12 12:46:40;;;;;;;4.28;1.13;;;;;;;;;;5089437;28;20496;-72
2023/02/12 12:49:23;;;;;;;4.13;1.30;;;;;;;;;;5064093;28;20052;-71
2023/02/12 12:52:13;;;;;;;1.10;0.95;;;;;;;;;;5049402;28;20049;-71
2023/02/12 12:54:49;;;;;;;3.10;1.45;;;;;;;;;;5056733;28;20084;-71
2023/02/12 12:57:21;;;;;;;1.77;1.13;;;;;;;;;;5059048;28;20496;-71
2023/02/12 13:00:00;;;;;;;1.73;0.90;;;;;;;;;;5060991;28;20055;-72
2023/02/12 13:02:49;;;;;;;3.78;1.50;;;;;;;;;;5067694;28;20090;-70
2023/02/12 13:05:40;;;;;;;2.22;1.13;;;;;;;;;;5064863;28;20040;-69
2023/02/12 13:08:15;;;;;;;1.10;0.65;;;;;;;;;;5062560;28;20071;-70
2023/02/12 13:10:47;;;;;;;1.17;0.57;;;;;;;;;;5065429;28;20059;-70
2023/02/12 13:13:22;;;;;;;5.88;2.08;;;;;;;;;;5054444;28;20508;-69
2023/02/12 13:15:50;;;;;;;;;;;;;;;;;;5061915;28;20060;-69
2023/02/12 13:18:24;;;;;;;1.63;0.82;;;;;;;;;;5075973;28;20369;-70
2023/02/12 13:20:57;;;;;;;6.25;1.25;;;;;;;;;;5081940;28;20063;-71
2023/02/12 13:23:30;;;;;;;2.55;1.45;;;;;;;;;;5088421;28;20049;-71
2023/02/12 13:26:03;;;;;;;1.95;1.05;;;;;;;;;;5080132;28;20048;-70
2023/02/12 13:28:34;;;;;;;1.80;1.25;;;;;;;;;;5087886;28;20048;-71
2023/02/12 13:31:04;;;;;;;4.10;1.05;;;;;;;;;;5089073;28;20079;-71
2023/02/12 13:33:55;;;;;;;1.98;0.98;;;;;;;;;;5089263;28;20047;-71
2023/02/12 13:36:23;;;;;;;1.52;0.70;;;;;;;;;;5086659;28;20048;-70
2023/02/12 13:38:55;;;;;;;4.88;1.48;;;;;;;;;;5072866;28;20044;-70
2023/02/12 13:41:26;;;;;;;2.00;1.30;;;;;;;;;;5060166;28;20052;-71
2023/02/12 13:43:59;;;;;;;5.63;1.88;;;;;;;;;;5066546;28;20467;-72
2023/02/12 13:46:32;;;;;;;5.45;0.95;;;;;;;;;;5069338;28;20045;-72
2023/02/12 13:49:03;;;;;;;3.80;1.00;;;;;;;;;;5068618;28;20048;-71
2023/02/12 13:51:41;;;;;;;5.95;1.38;;;;;;;;;;5061525;28;20044;-71
2023/02/12 13:54:20;;;;;;;2.70;0.90;;;;;;;;;;5060590;28;20052;-70
2023/02/12 13:56:51;;;;;;;2.70;1.63;;;;;;;;;;5063249;28;20048;-70
2023/02/12 13:59:38;;;;;;;5.20;1.25;;;;;;;;;;5063417;28;20082;-69
2023/02/12 14:02:06;;;;;;;6.18;1.73;;;;;;;;;;5059172;28;20064;-71
2023/02/12 14:04:37;;;;;;;5.57;2.17;;;;;;;;;;5066642;28;20049;-71
2023/02/12 14:07:06;;;;;;;2.80;0.95;;;;;;;;;;5068018;28;20059;-70
2023/02/12 14:09:37;;;;;;;9.20;2.13;;;;;;;;;;5059532;28;20060;-70
2023/02/12 14:12:08;;;;;;;4.80;1.23;;;;;;;;;;5064315;28;20048;-70
2023/02/12 14:14:38;;;;;;;2.33;1.33;;;;;;;;;;5069996;28;20041;-70
2023/02/12 14:17:25;;;;;;;4.80;1.35;;;;;;;;;;5071703;28;20052;-70
2023/02/12 14:19:55;;;;;;;3.45;1.70;;;;;;;;;;5087182;28;20048;-71
2023/02/12 14:22:42;;;;;;;5.95;1.33;;;;;;;;;;5081023;28;20485;-71
2023/02/12 14:25:25;;;;;;;4.97;1.90;;;;;;;;;;5084647;28;20055;-70
2023/02/12 14:27:56;;;;;;;2.13;1.10;;;;;;;;;;5073635;28;20414;-70
2023/02/12 14:30:31;;;;;;;5.60;1.23;;;;;;;;;;5063074;28;20160;-71
2023/02/12 14:33:14;;;;;;;1.35;0.82;;;;;;;;;;5070062;28;20045;-70
2023/02/12 14:35:43;;;;;;;4.43;0.82;;;;;;;;;;5063878;28;20048;-71
2023/02/12 14:38:30;;;;;;;5.13;1.75;;;;;;;;;;5065768;28;20052;-70
2023/02/12 14:41:32;;;;;;;5.47;2.17;;;;;;;;;;5068301;28;20123;-71
2023/02/12 14:44:21;;;;;;;2.80;1.48;;;;;;;;;;5067626;28;20062;-70
2023/02/12 14:46:52;;;;;;;9.90;2.15;;;;;;;;;;5066663;28;20045;-70
2023/02/12 14:49:24;;;;;;;9.00;2.38;;;;;;;;;;5055410;28;20125;-71
2023/02/12 14:51:54;;;;;;;2.83;1.73;;;;;;;;;;5057544;28;20524;-71
2023/02/12 14:54:27;;;;;;;3.20;1.50;;;;;;;;;;5052333;28;20076;-71
2023/02/12 14:56:56;;;;;;;5.45;1.98;;;;;;;;;;5055390;28;20135;-71
2023/02/12 14:59:26;;;;;;;2.58;1.00;;;;;;;;;;5080685;28;20059;-71
2023/02/12 15:01:58;;;;;;;5.60;1.75;;;;;;;;;;5083906;28;20056;-70
2023/02/12 15:04:28;;;;;;;1.85;1.27;;;;;;;;;;5084297;28;20055;-70
2023/02/12 15:06:58;;;;;;;5.38;1.00;;;;;;;;;;5083740;28;20048;-70
2023/02/12 15:09:29;;;;;;;2.17;1.13;;;;;;;;;;5077463;28;20053;-70
2023/02/12 15:12:01;;;;;;;1.33;0.60;;;;;;;;;;5074339;28;20040;-70